S 386 Casilo — OZZP — position and weather

sailwx.info

Track history (hours):
 
Tides and Currents Weather Stations Pressure Air Temp Water Temp Dewpoint Dewpoint Depression Visibility Wind Speed Wind Dir Waves Ship Positions

S 386 Casilo

Last reported at 2015-Jul-06 11:23 UTC. Time now 2015-Jul-07 02:30 UTC.
Position N 58°10' E 010°20'.

Length 24 m.

Type: Fishing. MMSI: 219948000.

Date/timePositionNaut miles runAvg speedWind from/ knotsBaromVisibWave heightAir tempDewpointWater temp
2015-Jul-06 11:23N 58°10' E 010°20'5 5.7
2015-Jul-06 10:33N 58°11' E 010°29'6 6.2
2015-Jul-06 09:33N 58°13' E 010°40'6 6.5
2015-Jul-06 08:33N 58°15' E 010°51'7 6.8
2015-Jul-06 07:33N 58°18' E 011°03'7 6.6
2015-Jul-06 06:33N 58°21' E 011°14'0 0.4
2015-Jul-06 05:31N 58°21' E 011°14'3 3.2
2015-Jul-06 04:33N 58°20' E 011°08'8 7.7
2015-Jul-06 03:33N 58°18' E 010°54'8 8.5
2015-Jul-06 02:33N 58°16' E 010°39'10 9.0
2015-Jul-06 01:24N 58°13' E 010°19'6 6.8
2015-Jul-06 00:31N 58°12' E 010°08'1 1.4
2015-Jul-05 23:31N 58°11' E 010°06'2 1.9
2015-Jul-05 22:28N 58°10' E 010°03'2 1.9
2015-Jul-05 21:31N 58°09' E 009°60'2 1.9
2015-Jul-05 20:31N 58°08' E 009°57'3 1.9
2015-Jul-05 19:13N 58°07' E 009°53'2 2.0
2015-Jul-05 18:16N 58°06' E 009°50'2 2.0
2015-Jul-05 17:19N 58°05' E 009°47'4 2.0
2015-Jul-05 15:25N 58°02' E 009°41'2 1.9
2015-Jul-05 14:31N 58°02' E 009°38'10 3.0
2015-Jul-05 11:05N 58°07' E 009°55'5 8.5
2015-Jul-05 10:29N 58°10' E 010°03'2 2.2
2015-Jul-05 09:29N 58°11' E 010°06'2 2.0
2015-Jul-05 08:32N 58°10' E 010°03'2 1.9
2015-Jul-05 07:32N 58°09' E 010°00'2 1.9
2015-Jul-05 06:32N 58°08' E 009°57'2 2.0
2015-Jul-05 05:26N 58°07' E 009°53'2 2.0
2015-Jul-05 04:32N 58°06' E 009°51'2 2.0
2015-Jul-05 03:32N 58°05' E 009°47'2 2.0
2015-Jul-05 02:32N 58°04' E 009°44'3 2.0
2015-Jul-05 01:17N 58°03' E 009°40'2 2.1
2015-Jul-05 00:32N 58°02' E 009°38'2 2.3
2015-Jul-04 23:33N 58°01' E 009°34'13 6.7
2015-Jul-04 21:32N 58°08' E 009°56'6 5.9
2015-Jul-04 20:29N 58°11' E 010°05'1 1.5
2015-Jul-04 19:32N 58°10' E 010°03'2 2.1
2015-Jul-04 18:32N 58°09' E 009°59'2 2.1
2015-Jul-04 17:29N 58°08' E 009°56'2 2.1
2015-Jul-04 16:32N 58°07' E 009°53'2 2.1
2015-Jul-04 15:32N 58°06' E 009°50'2 2.0
2015-Jul-04 14:20N 58°04' E 009°46'2 2.1
2015-Jul-04 13:17N 58°03' E 009°42'10 5.6
2015-Jul-04 11:26N 58°10' E 009°58'8 9.0
2015-Jul-04 10:31N 58°16' E 010°08'10 8.8
2015-Jul-04 09:23N 58°24' E 010°19'7 7.9
2015-Jul-04 08:33N 58°30' E 010°24'1 1.3
2015-Jul-04 07:31N 58°29' E 010°24'2 2.1
2015-Jul-04 06:31N 58°27' E 010°25'2 2.0
2015-Jul-04 05:19N 58°24' E 010°25'2 2.0
2015-Jul-04 04:31N 58°23' E 010°26'2 2.0
2015-Jul-04 03:31N 58°21' E 010°26'2 2.0
2015-Jul-04 02:31N 58°19' E 010°25'2 1.9
2015-Jul-04 01:19N 58°17' E 010°24'2 1.9
2015-Jul-04 00:22N 58°15' E 010°22'2 1.9
2015-Jul-03 23:31N 58°14' E 010°19'2 2.0
2015-Jul-03 22:28N 58°14' E 010°15'2 2.0
2015-Jul-03 21:31N 58°13' E 010°12'2 2.3
2015-Jul-03 20:33N 58°12' E 010°08'6 6.0
2015-Jul-03 19:33N 58°07' E 010°13'9 8.6
2015-Jul-03 18:28N 57°59' E 010°23'8 8.7
2015-Jul-03 17:33N 57°53' E 010°32'10 7.8
2015-Jul-03 16:17N 57°44' E 010°42'3 1.9
2015-Jul-03 14:27N 57°43' E 010°36'0 0.0
2015-Jul-03 00:20N 57°43' E 010°36'0 0.0
2015-Jul-02 23:32N 57°43' E 010°36'0 0.0
2015-Jul-02 22:26N 57°43' E 010°36'0 0.0
2015-Jul-02 21:32N 57°43' E 010°36'0 0.0
2015-Jul-02 19:32N 57°43' E 010°36'0 0.0
2015-Jul-02 16:17N 57°43' E 010°36'0 0.0
2015-Jul-02 15:26N 57°43' E 010°36'0 0.0
2015-Jul-02 14:20N 57°43' E 010°36'0 0.0
2015-Jul-02 13:23N 57°43' E 010°36'0 0.0
2015-Jul-02 11:29N 57°43' E 010°36'0 0.0
2015-Jul-02 10:23N 57°43' E 010°36'2 2.2
2015-Jul-02 09:32N 57°44' E 010°39'8 7.8
2015-Jul-02 08:33N 57°49' E 010°50'8 8.3
2015-Jul-02 07:33N 57°56' E 010°56'8 8.4
2015-Jul-02 06:33N 58°04' E 011°00'9 8.7
2015-Jul-02 05:33N 58°13' E 011°06'8 8.5
2015-Jul-02 04:33N 58°20' E 011°14'2 2.0
2015-Jul-02 03:33N 58°20' E 011°10'9 9.0
2015-Jul-02 02:33N 58°20' E 010°53'10 9.5
2015-Jul-02 01:33N 58°18' E 010°35'10 9.7
2015-Jul-02 00:33N 58°15' E 010°17'3 2.2
2015-Jul-01 23:04N 58°14' E 010°11'1 2.0
2015-Jul-01 22:28N 58°14' E 010°09'2 2.1
2015-Jul-01 21:28N 58°13' E 010°06'2 2.0
2015-Jul-01 20:31N 58°13' E 010°02'2 2.0
2015-Jul-01 19:31N 58°11' E 009°59'2 2.1
2015-Jul-01 18:28N 58°10' E 009°55'2 2.0
2015-Jul-01 17:16N 58°09' E 009°51'2 2.0
2015-Jul-01 16:31N 58°09' E 009°49'2 2.0
2015-Jul-01 15:31N 58°08' E 009°45'2 2.0
2015-Jul-01 14:31N 58°06' E 009°42'2 2.0
2015-Jul-01 13:22N 58°05' E 009°39'2 3.0
2015-Jul-01 12:33N 58°06' E 009°34'10 9.5
2015-Jul-01 11:33N 58°15' E 009°39'10 9.6
2015-Jul-01 10:34N 58°24' E 009°43'8 8.3
2015-Jul-01 09:34N 58°32' E 009°50'9 9.3
2015-Jul-01 08:33N 58°40' E 009°58'7 6.5
2015-Jul-01 07:28N 58°46' E 010°05'4 1.8
2015-Jul-01 05:31N 58°44' E 010°10'2 1.9
2015-Jul-01 04:28N 58°43' E 010°13'2 1.8
2015-Jul-01 03:28N 58°41' E 010°15'2 1.9
2015-Jul-01 02:31N 58°40' E 010°17'2 2.0
2015-Jul-01 01:31N 58°38' E 010°19'2 2.1
2015-Jul-01 00:31N 58°36' E 010°21'2 2.0
2015-Jun-30 23:31N 58°34' E 010°23'2 2.0
2015-Jun-30 22:31N 58°33' E 010°25'2 2.0
2015-Jun-30 21:33N 58°31' E 010°27'3 2.8
2015-Jun-30 20:33N 58°31' E 010°21'27 0.7
2015-Jun-29 06:33N 58°21' E 011°10'2 1.9
2015-Jun-29 05:25N 58°21' E 011°14'0 0.0
2015-Jun-29 04:31N 58°21' E 011°14'4 3.9
2015-Jun-29 03:33N 58°22' E 011°07'  
Track history (hours):
 
Tides and Currents Weather Stations Pressure Air Temp Water Temp Dewpoint Dewpoint Depression Visibility Wind Speed Wind Dir Waves Ship Positions

S 386 Casilo

Last reported at 2015-Jul-06 11:23 UTC. Time now 2015-Jul-07 02:30 UTC.
Position N 58°10' E 010°20'.

Length 24 m.

Type: Fishing. MMSI: 219948000.

Date/timePositionNaut miles runAvg speedWind from/ knotsBaromVisibWave heightAir tempDewpointWater temp
2015-Jul-06 11:23N 58°10' E 010°20'5 5.7
2015-Jul-06 10:33N 58°11' E 010°29'6 6.2
2015-Jul-06 09:33N 58°13' E 010°40'6 6.5
2015-Jul-06 08:33N 58°15' E 010°51'7 6.8
2015-Jul-06 07:33N 58°18' E 011°03'7 6.6
2015-Jul-06 06:33N 58°21' E 011°14'0 0.4
2015-Jul-06 05:31N 58°21' E 011°14'3 3.2
2015-Jul-06 04:33N 58°20' E 011°08'8 7.7
2015-Jul-06 03:33N 58°18' E 010°54'8 8.5
2015-Jul-06 02:33N 58°16' E 010°39'10 9.0
2015-Jul-06 01:24N 58°13' E 010°19'6 6.8
2015-Jul-06 00:31N 58°12' E 010°08'1 1.4
2015-Jul-05 23:31N 58°11' E 010°06'2 1.9
2015-Jul-05 22:28N 58°10' E 010°03'2 1.9
2015-Jul-05 21:31N 58°09' E 009°60'2 1.9
2015-Jul-05 20:31N 58°08' E 009°57'3 1.9
2015-Jul-05 19:13N 58°07' E 009°53'2 2.0
2015-Jul-05 18:16N 58°06' E 009°50'2 2.0
2015-Jul-05 17:19N 58°05' E 009°47'4 2.0
2015-Jul-05 15:25N 58°02' E 009°41'2 1.9
2015-Jul-05 14:31N 58°02' E 009°38'10 3.0
2015-Jul-05 11:05N 58°07' E 009°55'5 8.5
2015-Jul-05 10:29N 58°10' E 010°03'2 2.2
2015-Jul-05 09:29N 58°11' E 010°06'2 2.0
2015-Jul-05 08:32N 58°10' E 010°03'2 1.9
2015-Jul-05 07:32N 58°09' E 010°00'2 1.9
2015-Jul-05 06:32N 58°08' E 009°57'2 2.0
2015-Jul-05 05:26N 58°07' E 009°53'2 2.0
2015-Jul-05 04:32N 58°06' E 009°51'2 2.0
2015-Jul-05 03:32N 58°05' E 009°47'2 2.0
2015-Jul-05 02:32N 58°04' E 009°44'3 2.0
2015-Jul-05 01:17N 58°03' E 009°40'2 2.1
2015-Jul-05 00:32N 58°02' E 009°38'2 2.3
2015-Jul-04 23:33N 58°01' E 009°34'13 6.7
2015-Jul-04 21:32N 58°08' E 009°56'6 5.9
2015-Jul-04 20:29N 58°11' E 010°05'1 1.5
2015-Jul-04 19:32N 58°10' E 010°03'2 2.1
2015-Jul-04 18:32N 58°09' E 009°59'2 2.1
2015-Jul-04 17:29N 58°08' E 009°56'2 2.1
2015-Jul-04 16:32N 58°07' E 009°53'2 2.1
2015-Jul-04 15:32N 58°06' E 009°50'2 2.0
2015-Jul-04 14:20N 58°04' E 009°46'2 2.1
2015-Jul-04 13:17N 58°03' E 009°42'10 5.6
2015-Jul-04 11:26N 58°10' E 009°58'8 9.0
2015-Jul-04 10:31N 58°16' E 010°08'10 8.8
2015-Jul-04 09:23N 58°24' E 010°19'7 7.9
2015-Jul-04 08:33N 58°30' E 010°24'1 1.3
2015-Jul-04 07:31N 58°29' E 010°24'2 2.1
2015-Jul-04 06:31N 58°27' E 010°25'2 2.0
2015-Jul-04 05:19N 58°24' E 010°25'2 2.0
2015-Jul-04 04:31N 58°23' E 010°26'2 2.0
2015-Jul-04 03:31N 58°21' E 010°26'2 2.0
2015-Jul-04 02:31N 58°19' E 010°25'2 1.9
2015-Jul-04 01:19N 58°17' E 010°24'2 1.9
2015-Jul-04 00:22N 58°15' E 010°22'2 1.9
2015-Jul-03 23:31N 58°14' E 010°19'2 2.0
2015-Jul-03 22:28N 58°14' E 010°15'2 2.0
2015-Jul-03 21:31N 58°13' E 010°12'2 2.3
2015-Jul-03 20:33N 58°12' E 010°08'6 6.0
2015-Jul-03 19:33N 58°07' E 010°13'9 8.6
2015-Jul-03 18:28N 57°59' E 010°23'8 8.7
2015-Jul-03 17:33N 57°53' E 010°32'10 7.8
2015-Jul-03 16:17N 57°44' E 010°42'3 1.9
2015-Jul-03 14:27N 57°43' E 010°36'0 0.0
2015-Jul-03 00:20N 57°43' E 010°36'0 0.0
2015-Jul-02 23:32N 57°43' E 010°36'0 0.0
2015-Jul-02 22:26N 57°43' E 010°36'0 0.0
2015-Jul-02 21:32N 57°43' E 010°36'0 0.0
2015-Jul-02 19:32N 57°43' E 010°36'0 0.0
2015-Jul-02 16:17N 57°43' E 010°36'0 0.0
2015-Jul-02 15:26N 57°43' E 010°36'0 0.0
2015-Jul-02 14:20N 57°43' E 010°36'0 0.0
2015-Jul-02 13:23N 57°43' E 010°36'0 0.0
2015-Jul-02 11:29N 57°43' E 010°36'0 0.0
2015-Jul-02 10:23N 57°43' E 010°36'2 2.2
2015-Jul-02 09:32N 57°44' E 010°39'8 7.8
2015-Jul-02 08:33N 57°49' E 010°50'8 8.3
2015-Jul-02 07:33N 57°56' E 010°56'8 8.4
2015-Jul-02 06:33N 58°04' E 011°00'9 8.7
2015-Jul-02 05:33N 58°13' E 011°06'8 8.5
2015-Jul-02 04:33N 58°20' E 011°14'2 2.0
2015-Jul-02 03:33N 58°20' E 011°10'9 9.0
2015-Jul-02 02:33N 58°20' E 010°53'10 9.5
2015-Jul-02 01:33N 58°18' E 010°35'10 9.7
2015-Jul-02 00:33N 58°15' E 010°17'3 2.2
2015-Jul-01 23:04N 58°14' E 010°11'1 2.0
2015-Jul-01 22:28N 58°14' E 010°09'2 2.1
2015-Jul-01 21:28N 58°13' E 010°06'2 2.0
2015-Jul-01 20:31N 58°13' E 010°02'2 2.0
2015-Jul-01 19:31N 58°11' E 009°59'2 2.1
2015-Jul-01 18:28N 58°10' E 009°55'2 2.0
2015-Jul-01 17:16N 58°09' E 009°51'2 2.0
2015-Jul-01 16:31N 58°09' E 009°49'2 2.0
2015-Jul-01 15:31N 58°08' E 009°45'2 2.0
2015-Jul-01 14:31N 58°06' E 009°42'2 2.0
2015-Jul-01 13:22N 58°05' E 009°39'2 3.0
2015-Jul-01 12:33N 58°06' E 009°34'10 9.5
2015-Jul-01 11:33N 58°15' E 009°39'10 9.6
2015-Jul-01 10:34N 58°24' E 009°43'8 8.3
2015-Jul-01 09:34N 58°32' E 009°50'9 9.3
2015-Jul-01 08:33N 58°40' E 009°58'7 6.5
2015-Jul-01 07:28N 58°46' E 010°05'4 1.8
2015-Jul-01 05:31N 58°44' E 010°10'2 1.9
2015-Jul-01 04:28N 58°43' E 010°13'2 1.8
2015-Jul-01 03:28N 58°41' E 010°15'2 1.9
2015-Jul-01 02:31N 58°40' E 010°17'2 2.0
2015-Jul-01 01:31N 58°38' E 010°19'2 2.1
2015-Jul-01 00:31N 58°36' E 010°21'2 2.0
2015-Jun-30 23:31N 58°34' E 010°23'2 2.0
2015-Jun-30 22:31N 58°33' E 010°25'2 2.0
2015-Jun-30 21:33N 58°31' E 010°27'3 2.8
2015-Jun-30 20:33N 58°31' E 010°21'27 0.7
2015-Jun-29 06:33N 58°21' E 011°10'2 1.9
2015-Jun-29 05:25N 58°21' E 011°14'0 0.0
2015-Jun-29 04:31N 58°21' E 011°14'4 3.9
2015-Jun-29 03:33N 58°22' E 011°07'  

Dump ship's entire track history